createdAt,value
2023-02-04T00:01:42.000Z,1.90
2023-02-04T00:07:44.455Z,1.90
2023-02-04T00:13:46.850Z,2.00
2023-02-04T00:19:48.980Z,2.00
2023-02-04T00:25:51.407Z,2.00
2023-02-04T00:31:53.898Z,2.00
2023-02-04T00:37:56.808Z,2.10
2023-02-04T00:44:01.370Z,2.10
2023-02-04T00:50:03.821Z,2.10
2023-02-04T00:56:06.228Z,2.00
2023-02-04T01:02:08.368Z,2.00
2023-02-04T01:08:10.539Z,2.10
2023-02-04T01:14:13.677Z,2.10
2023-02-04T01:20:16.148Z,2.10
2023-02-04T01:26:21.712Z,2.20
2023-02-04T01:32:24.019Z,2.20
2023-02-04T01:38:27.698Z,2.20
2023-02-04T01:44:30.532Z,2.20
2023-02-04T01:50:33.690Z,2.20
2023-02-04T01:56:36.069Z,2.20
2023-02-04T02:02:42.087Z,2.20
2023-02-04T02:08:44.310Z,2.20
2023-02-04T02:14:46.491Z,2.10
2023-02-04T02:20:48.806Z,2.20
2023-02-04T02:26:51.425Z,2.10
2023-02-04T02:32:54.839Z,2.10
2023-02-04T02:38:57.162Z,2.10
2023-02-04T02:45:00.352Z,1.90
2023-02-04T02:51:02.746Z,1.90
2023-02-04T02:57:11.110Z,1.90
2023-02-04T03:03:20.114Z,1.90
2023-02-04T03:09:25.766Z,1.80
2023-02-04T03:15:28.180Z,1.80
2023-02-04T03:21:30.589Z,1.80
2023-02-04T03:27:33.298Z,1.80
2023-02-04T03:33:36.388Z,1.90
2023-02-04T03:39:38.767Z,1.90
2023-02-04T03:45:45.579Z,1.80
2023-02-04T03:51:48.198Z,1.80
2023-02-04T03:57:50.485Z,1.80
2023-02-04T04:03:52.612Z,1.90
2023-02-04T04:09:54.991Z,1.90
2023-02-04T04:15:57.258Z,2.00
2023-02-04T04:21:59.590Z,2.00
2023-02-04T04:28:01.924Z,2.00
2023-02-04T04:34:04.292Z,2.10
2023-02-04T04:40:06.898Z,2.10
2023-02-04T04:46:09.227Z,2.10
2023-02-04T04:52:11.464Z,2.20
2023-02-04T04:58:13.805Z,2.30
2023-02-04T05:04:16.210Z,2.30
2023-02-04T05:10:18.601Z,2.40
2023-02-04T05:16:21.466Z,2.50
2023-02-04T05:22:23.882Z,2.50
2023-02-04T05:28:26.323Z,2.50
2023-02-04T05:34:28.587Z,2.50
2023-02-04T05:40:31.410Z,2.50
2023-02-04T05:46:33.810Z,2.60
2023-02-04T05:52:36.336Z,2.60
2023-02-04T05:58:40.000Z,2.80
2023-02-04T06:04:44.716Z,2.90
2023-02-04T06:10:47.087Z,2.90
2023-02-04T06:16:49.451Z,3.10
2023-02-04T06:22:52.321Z,3.20
2023-02-04T06:28:54.597Z,3.30
2023-02-04T06:34:56.837Z,3.40
2023-02-04T06:40:59.135Z,3.40
2023-02-04T06:47:01.383Z,3.60
2023-02-04T06:53:04.208Z,3.90
2023-02-04T06:59:06.527Z,4.20
2023-02-04T07:05:09.468Z,4.50
2023-02-04T07:11:11.846Z,4.40
2023-02-04T07:17:14.136Z,4.50
2023-02-04T07:23:16.675Z,4.50
2023-02-04T07:29:25.703Z,4.60
2023-02-04T07:35:28.038Z,4.50
2023-02-04T07:41:30.421Z,4.50
2023-02-04T07:47:32.703Z,4.70
2023-02-04T07:53:34.869Z,4.80
2023-02-04T07:59:37.197Z,4.90
2023-02-04T08:05:42.468Z,4.80
2023-02-04T08:11:44.791Z,4.40
2023-02-04T08:17:47.186Z,4.50
2023-02-04T08:23:49.422Z,4.60
2023-02-04T08:29:51.925Z,4.80
2023-02-04T08:35:54.396Z,5.00
2023-02-04T08:41:56.513Z,5.50
2023-02-04T08:47:58.794Z,5.90
2023-02-04T08:54:00.985Z,5.80
2023-02-04T09:00:03.897Z,6.10
2023-02-04T09:06:07.273Z,7.10
2023-02-04T09:12:09.769Z,7.80
2023-02-04T09:18:16.957Z,8.30
2023-02-04T09:24:19.688Z,8.10
2023-02-04T09:30:21.987Z,7.80
2023-02-04T09:36:28.810Z,7.60
2023-02-04T09:42:30.957Z,7.40
2023-02-04T09:48:33.243Z,7.70
2023-02-04T09:54:35.708Z,7.70
2023-02-04T10:00:37.896Z,7.70
2023-02-04T10:06:41.265Z,7.90
2023-02-04T10:12:43.502Z,7.70
2023-02-04T10:18:46.987Z,7.50
2023-02-04T10:24:49.454Z,7.40
2023-02-04T10:30:51.826Z,7.20
2023-02-04T10:36:58.069Z,6.90
2023-02-04T10:43:00.399Z,7.30
2023-02-04T10:49:25.053Z,7.80
2023-02-04T10:55:27.125Z,8.20
2023-02-04T11:01:30.201Z,8.70
2023-02-04T11:07:32.578Z,9.10
2023-02-04T11:14:02.369Z,8.90
2023-02-04T11:20:16.380Z,8.80
2023-02-04T11:26:31.947Z,8.90
2023-02-04T11:32:39.152Z,8.60
2023-02-04T11:38:46.888Z,8.30
2023-02-04T11:45:20.985Z,7.90
2023-02-04T11:51:34.014Z,7.70
2023-02-04T11:57:44.203Z,7.80
2023-02-04T12:03:49.037Z,7.50
2023-02-04T12:09:51.199Z,7.30
2023-02-04T12:16:05.478Z,7.20
2023-02-04T12:22:08.029Z,6.90
2023-02-04T12:28:10.308Z,6.60
2023-02-04T12:34:12.559Z,6.30
2023-02-04T12:40:17.293Z,6.20
2023-02-04T12:46:19.597Z,6.00
2023-02-04T12:52:21.669Z,5.60
2023-02-04T12:58:24.107Z,5.20
2023-02-04T13:04:26.598Z,5.00
2023-02-04T13:10:28.875Z,5.00
2023-02-04T13:16:31.180Z,4.80
2023-02-04T13:22:33.684Z,4.80
2023-02-04T13:28:37.001Z,4.60
2023-02-04T13:34:39.253Z,4.20
2023-02-04T13:40:43.485Z,3.90
2023-02-04T13:46:45.746Z,3.80
2023-02-04T13:52:48.035Z,3.70
2023-02-04T13:58:50.307Z,3.60
2023-02-04T14:04:53.208Z,3.70
2023-02-04T14:10:55.236Z,3.60
2023-02-04T14:16:57.566Z,3.70
2023-02-04T14:22:59.894Z,3.50
2023-02-04T14:29:02.407Z,3.10
2023-02-04T14:35:04.989Z,3.00
2023-02-04T14:41:07.274Z,2.50
2023-02-04T14:47:09.371Z,2.30
2023-02-04T14:53:11.514Z,2.00
2023-02-04T14:59:13.874Z,2.10
2023-02-04T15:05:16.409Z,2.00
2023-02-04T15:11:18.828Z,1.90
2023-02-04T15:17:21.038Z,1.70
2023-02-04T15:23:23.379Z,1.60
2023-02-04T15:29:25.771Z,1.50
2023-02-04T15:35:28.002Z,1.40
2023-02-04T15:41:30.194Z,1.20
2023-02-04T15:47:32.639Z,1.20
2023-02-04T15:53:38.062Z,1.20
2023-02-04T15:59:40.329Z,1.20
2023-02-04T16:05:42.727Z,1.10
2023-02-04T16:11:45.108Z,1.10
2023-02-04T16:17:48.230Z,1.10
2023-02-04T16:23:50.656Z,1.10
2023-02-04T16:29:54.847Z,1.10
2023-02-04T16:36:07.923Z,1.10
2023-02-04T16:42:10.786Z,1.10
2023-02-04T16:48:13.094Z,1.20
2023-02-04T16:54:15.724Z,1.10
2023-02-04T17:00:18.500Z,1.20
2023-02-04T17:06:20.952Z,1.10
2023-02-04T17:12:23.562Z,1.00
2023-02-04T17:18:26.944Z,1.00
2023-02-04T17:24:29.392Z,1.00
2023-02-04T17:30:31.655Z,0.90
2023-02-04T17:36:34.172Z,0.90
2023-02-04T17:42:36.402Z,1.00
2023-02-04T17:48:38.600Z,1.00
2023-02-04T17:54:40.761Z,1.10
2023-02-04T18:00:45.989Z,1.10
2023-02-04T18:06:51.740Z,1.20
2023-02-04T18:12:56.089Z,1.20
2023-02-04T18:19:18.589Z,1.30
2023-02-04T18:25:21.551Z,1.30
2023-02-04T18:31:46.266Z,1.30
2023-02-04T18:37:51.263Z,1.20
2023-02-04T18:44:02.748Z,1.20
2023-02-04T18:50:32.875Z,1.20
2023-02-04T18:56:37.141Z,1.30
2023-02-04T19:02:42.982Z,1.30
2023-02-04T19:08:45.514Z,1.30
2023-02-04T19:14:47.959Z,1.30
2023-02-04T19:20:50.854Z,1.30
2023-02-04T19:26:58.385Z,1.30
2023-02-04T19:33:10.520Z,1.30
2023-02-04T19:39:30.906Z,1.30
2023-02-04T19:45:34.371Z,1.30
2023-02-04T19:51:37.067Z,1.30
2023-02-04T19:57:39.444Z,1.30
2023-02-04T20:03:46.167Z,1.20
2023-02-04T20:09:48.888Z,1.20
2023-02-04T20:15:55.555Z,1.20
2023-02-04T20:22:19.189Z,1.10
2023-02-04T20:28:26.879Z,1.10
2023-02-04T20:34:28.977Z,1.10
2023-02-04T20:40:36.130Z,1.10
2023-02-04T20:46:38.331Z,1.00
2023-02-04T20:52:40.364Z,1.10
2023-02-04T20:58:44.661Z,1.00
2023-02-04T21:04:52.414Z,1.00
2023-02-04T21:10:55.229Z,0.90
2023-02-04T21:16:57.437Z,0.80
2023-02-04T21:23:00.122Z,0.70
2023-02-04T21:29:02.686Z,0.70
2023-02-04T21:35:04.862Z,0.70
2023-02-04T21:41:06.988Z,0.70
2023-02-04T21:47:09.144Z,0.70
2023-02-04T21:53:11.514Z,0.70
2023-02-04T21:59:15.511Z,0.70
2023-02-04T22:05:17.826Z,0.60
2023-02-04T22:11:20.090Z,0.60
2023-02-04T22:17:22.266Z,0.60
2023-02-04T22:23:24.383Z,0.50
2023-02-04T22:29:30.318Z,0.50
2023-02-04T22:35:35.633Z,0.40
2023-02-04T22:41:38.051Z,0.40
2023-02-04T22:47:40.267Z,0.30
2023-02-04T22:53:42.556Z,0.20
2023-02-04T22:59:44.890Z,0.20
2023-02-04T23:05:48.327Z,0.10
2023-02-04T23:11:50.775Z,0.10
2023-02-04T23:17:53.061Z,0.00
2023-02-04T23:23:55.352Z,0.00
2023-02-04T23:29:57.519Z,0.00
2023-02-04T23:35:59.909Z,0.00
2023-02-04T23:42:02.383Z,-0.10
2023-02-04T23:48:05.042Z,-0.20
2023-02-04T23:54:07.729Z,-0.30
